Time,TemperatureF,DewpointF,PressureIn,WindDirection,WindDirectionDegrees,WindSpeedMPH,WindSpeedGustMPH,Humidity,HourlyPrecipIn,Conditions,Clouds,dailyrainin,SoftwareType,DateUTC
2013-09-12 00:00:00,78.7,53.0,29.98,SW,216,0.0,0.0,41,0.00,,---,0.00,VWS V14.01,2013-09-12 04:00:00,
2013-09-12 00:01:00,78.7,53.0,29.98,SW,216,0.0,0.0,41,0.00,,---,0.00,VWS V14.01,2013-09-12 04:01:00,
2013-09-12 00:02:00,78.7,53.0,29.98,SW,216,0.0,0.0,41,0.00,,---,0.00,VWS V14.01,2013-09-12 04:02:00,
2013-09-12 00:03:00,78.7,53.0,29.98,SW,216,0.0,0.0,41,0.00,,---,0.00,VWS V14.01,2013-09-12 04:03:00,
2013-09-12 00:08:00,78.5,52.9,29.98,SW,216,0.0,1.0,41,0.00,,---,0.00,VWS V14.01,2013-09-12 04:08:00,
2013-09-12 00:12:00,78.3,52.7,29.98,SW,216,0.0,1.0,41,0.00,,---,0.00,VWS V14.01,2013-09-12 04:12:00,
2013-09-12 00:15:00,78.2,51.9,29.97,SW,217,0.0,1.0,40,0.00,,---,0.00,VWS V14.01,2013-09-12 04:15:00,
2013-09-12 00:17:00,78.2,51.9,29.97,SW,216,0.0,1.0,40,0.00,,---,0.00,VWS V14.01,2013-09-12 04:17:00,
2013-09-12 00:18:00,78.2,51.9,29.97,SW,216,0.0,1.0,40,0.00,,---,0.00,VWS V14.01,2013-09-12 04:18:00,
2013-09-12 00:23:00,78.2,52.6,29.97,SW,216,0.0,1.0,41,0.00,,---,0.00,VWS V14.01,2013-09-12 04:23:00,
2013-09-12 00:28:00,78.1,52.5,29.97,SW,217,0.0,1.0,41,0.00,,---,0.00,VWS V14.01,2013-09-12 04:28:00,
2013-09-12 00:30:00,78.2,52.6,29.97,WSW,238,0.0,1.0,41,0.00,,---,0.00,VWS V14.01,2013-09-12 04:30:00,
2013-09-12 00:33:00,78.2,52.6,29.97,WSW,238,0.0,1.0,41,0.00,,---,0.00,VWS V14.01,2013-09-12 04:33:00,
2013-09-12 00:38:00,78.1,52.5,29.97,WSW,240,0.0,5.0,41,0.00,,---,0.00,VWS V14.01,2013-09-12 04:38:00,
2013-09-12 00:43:00,78.1,52.5,29.96,SW,233,0.0,5.0,41,0.00,,---,0.00,VWS V14.01,2013-09-12 04:43:00,
2013-09-12 00:45:00,78.1,53.2,29.96,South,173,0.0,5.0,42,0.00,,---,0.00,VWS V14.01,2013-09-12 04:45:00,
2013-09-12 00:48:00,78.2,53.2,29.96,SSE,160,0.0,5.0,42,0.00,,---,0.00,VWS V14.01,2013-09-12 04:48:00,
2013-09-12 00:53:00,78.1,53.2,29.96,South,173,0.0,3.0,42,0.00,,---,0.00,VWS V14.01,2013-09-12 04:53:00,
2013-09-12 00:58:00,78.0,53.1,29.95,SSE,153,0.0,6.0,42,0.00,,---,0.00,VWS V14.01,2013-09-12 04:58:00,
2013-09-12 01:00:00,77.9,53.0,29.95,SW,228,0.0,6.0,42,0.00,,---,0.00,VWS V14.01,2013-09-12 05:00:00,
2013-09-12 01:03:00,78.0,53.1,29.95,SW,228,0.0,6.0,42,0.00,,---,0.00,VWS V14.01,2013-09-12 05:03:00,
2013-09-12 01:08:00,77.8,52.9,29.95,SW,228,0.0,1.0,42,0.00,,---,0.00,VWS V14.01,2013-09-12 05:08:00,
2013-09-12 01:13:00,77.7,52.8,29.94,SSW,198,0.0,6.0,42,0.00,,---,0.00,VWS V14.01,2013-09-12 05:13:00,
2013-09-12 01:15:00,77.6,52.7,29.94,West,261,3.0,9.0,42,0.00,,---,0.00,VWS V14.01,2013-09-12 05:15:00,
2013-09-12 01:18:00,77.6,52.7,29.94,WSW,246,2.0,6.0,42,0.00,,---,0.00,VWS V14.01,2013-09-12 05:18:00,
2013-09-12 01:23:00,77.6,52.7,29.94,WSW,240,4.0,8.0,42,0.00,,---,0.00,VWS V14.01,2013-09-12 05:23:00,
2013-09-12 01:28:00,77.5,52.6,29.94,SW,230,0.0,8.0,42,0.00,,---,0.00,VWS V14.01,2013-09-12 05:28:00,
2013-09-12 01:30:00,77.4,52.5,29.94,WSW,256,1.0,8.0,42,0.00,,---,0.00,VWS V14.01,2013-09-12 05:30:00,
2013-09-12 01:33:00,77.4,52.5,29.94,SW,216,0.0,8.0,42,0.00,,---,0.00,VWS V14.01,2013-09-12 05:33:00,
2013-09-12 01:38:00,77.3,52.5,29.94,SSW,207,0.0,7.0,42,0.00,,---,0.00,VWS V14.01,2013-09-12 05:38:00,
2013-09-12 01:43:00,77.2,52.4,29.93,West,263,0.0,7.0,42,0.00,,---,0.00,VWS V14.01,2013-09-12 05:43:00,
2013-09-12 01:45:00,77.1,52.3,29.93,SSW,197,3.0,9.0,42,0.00,,---,0.00,VWS V14.01,2013-09-12 05:45:00,
2013-09-12 01:48:00,77.1,52.3,29.93,SSW,207,2.0,9.0,42,0.00,,---,0.00,VWS V14.01,2013-09-12 05:48:00,
2013-09-12 01:53:00,77.0,52.2,29.94,South,190,6.0,6.0,42,0.00,,---,0.00,VWS V14.01,2013-09-12 05:53:00,
2013-09-12 01:58:00,76.9,52.1,29.93,West,261,7.0,7.0,42,0.00,,---,0.00,VWS V14.01,2013-09-12 05:58:00,
2013-09-12 02:00:00,76.8,52.0,29.93,West,269,0.0,7.0,42,0.00,,---,0.00,VWS V14.01,2013-09-12 06:00:00,
2013-09-12 02:03:00,76.9,52.1,29.93,West,269,2.0,7.0,42,0.00,,---,0.00,VWS V14.01,2013-09-12 06:03:00,
2013-09-12 02:08:00,76.7,51.9,29.94,WSW,256,0.0,6.0,42,0.00,,---,0.00,VWS V14.01,2013-09-12 06:08:00,
2013-09-12 02:13:00,76.6,51.2,29.93,WSW,257,3.0,7.0,41,0.00,,---,0.00,VWS V14.01,2013-09-12 06:13:00,
2013-09-12 02:15:00,76.6,51.2,29.93,SW,219,1.0,8.0,41,0.00,,---,0.00,VWS V14.01,2013-09-12 06:15:00,
2013-09-12 02:18:00,76.6,51.2,29.93,SW,221,3.0,8.0,41,0.00,,---,0.00,VWS V14.01,2013-09-12 06:18:00,
2013-09-12 02:23:00,76.6,51.2,29.93,SSW,213,3.0,7.0,41,0.00,,---,0.00,VWS V14.01,2013-09-12 06:23:00,
2013-09-12 02:28:00,76.5,51.1,29.93,WSW,244,2.0,7.0,41,0.00,,---,0.00,VWS V14.01,2013-09-12 06:28:00,
2013-09-12 02:30:00,76.4,51.0,29.93,West,271,0.0,7.0,41,0.00,,---,0.00,VWS V14.01,2013-09-12 06:30:00,
2013-09-12 02:33:00,76.4,51.0,29.93,West,274,0.0,7.0,41,0.00,,---,0.00,VWS V14.01,2013-09-12 06:33:00,
2013-09-12 02:39:00,76.3,50.9,29.93,WSW,251,0.0,3.0,41,0.00,,---,0.00,VWS V14.01,2013-09-12 06:39:00,
2013-09-12 02:44:00,76.3,50.9,29.93,SSW,207,1.0,6.0,41,0.00,,---,0.00,VWS V14.01,2013-09-12 06:44:00,
2013-09-12 02:45:00,76.2,50.8,29.93,SW,221,0.0,6.0,41,0.00,,---,0.00,VWS V14.01,2013-09-12 06:45:00,
2013-09-12 02:49:00,76.2,50.8,29.93,SW,221,0.0,6.0,41,0.00,,---,0.00,VWS V14.01,2013-09-12 06:49:00,
2013-09-12 02:54:00,76.2,50.8,29.93,South,184,0.0,7.0,41,0.00,,---,0.00,VWS V14.01,2013-09-12 06:54:00,
2013-09-12 02:59:00,76.2,50.8,29.93,SW,229,5.0,7.0,41,0.00,,---,0.00,VWS V14.01,2013-09-12 06:59:00,
2013-09-12 03:00:00,76.1,50.7,29.93,WSW,249,0.0,7.0,41,0.00,,---,0.00,VWS V14.01,2013-09-12 07:00:00,
2013-09-12 03:04:00,76.1,50.7,29.93,WSW,249,0.0,7.0,41,0.00,,---,0.00,VWS V14.01,2013-09-12 07:04:00,
2013-09-12 03:09:00,76.0,50.0,29.93,WSW,248,0.0,4.0,40,0.00,,---,0.00,VWS V14.01,2013-09-12 07:09:00,
2013-09-12 03:14:00,75.9,49.9,29.93,WSW,248,0.0,4.0,40,0.00,,---,0.00,VWS V14.01,2013-09-12 07:14:00,
2013-09-12 03:15:00,75.8,49.8,29.93,WSW,243,3.0,7.0,40,0.00,,---,0.00,VWS V14.01,2013-09-12 07:15:00,
2013-09-12 03:19:00,75.8,49.8,29.93,WSW,238,3.0,7.0,40,0.00,,---,0.00,VWS V14.01,2013-09-12 07:19:00,
2013-09-12 03:24:00,75.7,49.7,29.93,WSW,248,0.0,3.0,40,0.00,,---,0.00,VWS V14.01,2013-09-12 07:24:00,
2013-09-12 03:29:00,75.6,48.9,29.93,South,183,0.0,7.0,39,0.00,,---,0.00,VWS V14.01,2013-09-12 07:29:00,
2013-09-12 03:30:00,76.4,51.0,29.93,West,271,0.0,7.0,41,0.00,,---,0.00,VWS V14.01,2013-09-12 07:30:00,
2013-09-12 03:40:00,75.5,48.8,29.93,West,267,2.0,4.0,39,0.00,,---,0.00,VWS V14.01,2013-09-12 07:40:00,
2013-09-12 03:45:00,75.4,48.0,29.93,SW,218,0.0,5.0,38,0.00,,---,0.00,VWS V14.01,2013-09-12 07:45:00,
2013-09-12 03:50:00,75.4,48.0,29.93,SSW,211,0.0,0.0,38,0.00,,---,0.00,VWS V14.01,2013-09-12 07:50:00,
2013-09-12 03:55:00,75.3,48.0,29.92,WSW,242,0.0,5.0,38,0.00,,---,0.00,VWS V14.01,2013-09-12 07:55:00,
2013-09-12 04:00:00,75.3,48.0,29.92,SW,227,4.0,8.0,38,0.00,,---,0.00,VWS V14.01,2013-09-12 08:00:00,
2013-09-12 04:05:00,75.2,47.9,29.92,SW,227,0.0,0.0,38,0.00,,---,0.00,VWS V14.01,2013-09-12 08:05:00,
2013-09-12 04:10:00,75.1,47.8,29.92,WNW,287,0.0,3.0,38,0.00,,---,0.00,VWS V14.01,2013-09-12 08:10:00,
2013-09-12 04:15:00,75.0,47.0,29.92,WNW,284,0.0,3.0,37,0.00,,---,0.00,VWS V14.01,2013-09-12 08:15:00,
2013-09-12 04:20:00,74.9,46.9,29.92,SW,227,6.0,7.0,37,0.00,,---,0.00,VWS V14.01,2013-09-12 08:20:00,
2013-09-12 04:25:00,74.9,46.9,29.92,WSW,238,0.0,7.0,37,0.00,,---,0.00,VWS V14.01,2013-09-12 08:25:00,
2013-09-12 04:30:00,74.8,46.8,29.92,WSW,249,1.0,7.0,37,0.00,,---,0.00,VWS V14.01,2013-09-12 08:30:00,
2013-09-12 04:35:00,74.7,46.0,29.92,WSW,249,1.0,2.0,36,0.00,,---,0.00,VWS V14.01,2013-09-12 08:35:00,
2013-09-12 04:40:00,74.6,45.9,29.92,WSW,250,0.0,3.0,36,0.00,,---,0.00,VWS V14.01,2013-09-12 08:40:00,
2013-09-12 04:45:00,74.4,45.7,29.92,SW,216,2.0,5.0,36,0.00,,---,0.00,VWS V14.01,2013-09-12 08:45:00,
2013-09-12 04:50:00,74.3,45.7,29.92,WSW,241,5.0,6.0,36,0.00,,---,0.00,VWS V14.01,2013-09-12 08:50:00,
2013-09-12 04:55:00,74.2,45.6,29.92,WSW,243,0.0,6.0,36,0.00,,---,0.00,VWS V14.01,2013-09-12 08:55:00,
2013-09-12 05:00:00,74.1,44.7,29.92,SSW,200,0.0,6.0,35,0.00,,---,0.00,VWS V14.01,2013-09-12 09:00:00,
2013-09-12 05:05:00,74.1,44.7,29.92,SSW,205,0.0,0.0,35,0.00,,---,0.00,VWS V14.01,2013-09-12 09:05:00,
2013-09-12 05:10:00,73.9,44.5,29.92,WSW,244,2.0,4.0,35,0.00,,---,0.00,VWS V14.01,2013-09-12 09:10:00,
2013-09-12 05:15:00,73.9,44.5,29.92,WSW,248,2.0,5.0,35,0.00,,---,0.00,VWS V14.01,2013-09-12 09:15:00,
2013-09-12 05:20:00,73.7,44.4,29.92,WSW,248,0.0,2.0,35,0.00,,---,0.00,VWS V14.01,2013-09-12 09:20:00,
2013-09-12 05:25:00,73.6,44.3,29.92,WSW,248,0.0,4.0,35,0.00,,---,0.00,VWS V14.01,2013-09-12 09:25:00,
2013-09-12 05:30:00,73.5,44.2,29.92,WSW,248,1.0,4.0,35,0.00,,---,0.00,VWS V14.01,2013-09-12 09:30:00,
2013-09-12 05:35:00,73.4,43.3,29.92,WSW,248,0.0,1.0,34,0.00,,---,0.00,VWS V14.01,2013-09-12 09:35:00,
2013-09-12 05:40:00,73.3,43.3,29.92,WSW,248,0.0,4.0,34,0.00,,---,0.00,VWS V14.01,2013-09-12 09:40:00,
2013-09-12 05:45:00,73.2,43.2,29.92,WSW,248,0.0,4.0,34,0.00,,---,0.00,VWS V14.01,2013-09-12 09:45:00,
2013-09-12 05:50:00,73.1,43.1,29.92,WSW,248,0.0,1.0,34,0.00,,---,0.00,VWS V14.01,2013-09-12 09:50:00,
2013-09-12 05:56:00,72.8,42.8,29.92,WSW,248,0.0,1.0,34,0.00,,---,0.00,VWS V14.01,2013-09-12 09:56:00,
2013-09-12 06:00:00,72.6,42.7,29.92,WSW,248,0.0,1.0,34,0.00,,---,0.00,VWS V14.01,2013-09-12 10:00:00,
2013-09-12 06:01:00,72.7,42.7,29.92,WSW,248,0.0,1.0,34,0.00,,---,0.00,VWS V14.01,2013-09-12 10:01:00,
2013-09-12 06:06:00,72.5,42.6,29.92,WSW,248,0.0,0.0,34,0.00,,---,0.00,VWS V14.01,2013-09-12 10:06:00,
2013-09-12 06:11:00,72.4,42.5,29.92,WSW,248,1.0,4.0,34,0.00,,---,0.00,VWS V14.01,2013-09-12 10:11:00,
2013-09-12 06:15:00,72.2,42.3,29.91,WSW,248,0.0,4.0,34,0.00,,---,0.00,VWS V14.01,2013-09-12 10:15:00,
2013-09-12 06:16:00,72.3,42.4,29.92,WSW,248,0.0,4.0,34,0.00,,---,0.00,VWS V14.01,2013-09-12 10:16:00,
2013-09-12 06:21:00,72.2,42.3,29.91,WSW,248,0.0,0.0,34,0.00,,---,0.00,VWS V14.01,2013-09-12 10:21:00,
2013-09-12 06:26:00,72.1,42.2,29.91,WSW,248,0.0,1.0,34,0.00,,---,0.00,VWS V14.01,2013-09-12 10:26:00,
2013-09-12 06:30:00,72.2,42.3,29.91,WSW,246,2.0,4.0,34,0.00,,---,0.00,VWS V14.01,2013-09-12 10:30:00,
2013-09-12 06:31:00,72.2,42.3,29.91,WSW,246,0.0,4.0,34,0.00,,---,0.00,VWS V14.01,2013-09-12 10:31:00,
2013-09-12 06:36:00,72.2,42.3,29.91,WSW,246,0.0,2.0,34,0.00,,---,0.00,VWS V14.01,2013-09-12 10:36:00,
2013-09-12 06:41:00,72.3,42.4,29.92,WSW,246,0.0,2.0,34,0.00,,---,0.00,VWS V14.01,2013-09-12 10:41:00,
2013-09-12 06:45:00,72.3,42.4,29.92,WSW,246,0.0,4.0,34,0.00,,---,0.00,VWS V14.01,2013-09-12 10:45:00,
2013-09-12 06:46:00,72.3,42.4,29.92,WSW,246,2.0,4.0,34,0.00,,---,0.00,VWS V14.01,2013-09-12 10:46:00,
2013-09-12 06:51:00,72.3,42.4,29.92,WSW,246,0.0,1.0,34,0.00,,---,0.00,VWS V14.01,2013-09-12 10:51:00,
2013-09-12 06:56:00,72.3,42.4,29.92,WSW,246,2.0,3.0,34,0.00,,---,0.00,VWS V14.01,2013-09-12 10:56:00,
2013-09-12 07:00:00,72.3,42.4,29.92,West,277,0.0,8.0,34,0.00,,---,0.00,VWS V14.01,2013-09-12 11:00:00,
2013-09-12 07:01:00,72.3,42.4,29.92,WSW,246,0.0,3.0,34,0.00,,---,0.00,VWS V14.01,2013-09-12 11:01:00,
2013-09-12 07:06:00,72.3,42.4,29.92,West,275,0.0,4.0,34,0.00,,---,0.00,VWS V14.01,2013-09-12 11:06:00,
2013-09-12 07:11:00,72.4,42.5,29.92,WSW,246,3.0,7.0,34,0.00,,---,0.00,VWS V14.01,2013-09-12 11:11:00,
2013-09-12 07:15:00,72.5,42.6,29.92,SSW,203,0.0,7.0,34,0.00,,---,0.00,VWS V14.01,2013-09-12 11:15:00,
2013-09-12 07:16:00,72.4,42.5,29.92,SSW,202,0.0,7.0,34,0.00,,---,0.00,VWS V14.01,2013-09-12 11:16:00,
2013-09-12 07:21:00,72.5,42.6,29.92,SSW,203,0.0,1.0,34,0.00,,---,0.00,VWS V14.01,2013-09-12 11:21:00,
2013-09-12 07:26:00,72.6,42.7,29.92,SSW,196,0.0,2.0,34,0.00,,---,0.00,VWS V14.01,2013-09-12 11:26:00,
2013-09-12 07:30:00,72.8,42.8,29.91,SW,220,0.0,5.0,34,0.00,,---,0.00,VWS V14.01,2013-09-12 11:30:00,
2013-09-12 07:31:00,72.7,42.7,29.91,SW,217,0.0,5.0,34,0.00,,---,0.00,VWS V14.01,2013-09-12 11:31:00,
2013-09-12 07:36:00,72.8,42.8,29.91,SW,220,0.0,0.0,34,0.00,,---,0.00,VWS V14.01,2013-09-12 11:36:00,
2013-09-12 07:41:00,72.9,42.9,29.91,WSW,249,0.0,6.0,34,0.00,,---,0.00,VWS V14.01,2013-09-12 11:41:00,
2013-09-12 07:45:00,73.1,43.1,29.91,West,273,2.0,6.0,34,0.00,,---,0.00,VWS V14.01,2013-09-12 11:45:00,
2013-09-12 07:46:00,73.1,43.1,29.92,West,275,0.0,6.0,34,0.00,,---,0.00,VWS V14.01,2013-09-12 11:46:00,
2013-09-12 07:51:00,73.2,43.2,29.91,SW,219,0.0,5.0,34,0.00,,---,0.00,VWS V14.01,2013-09-12 11:51:00,
2013-09-12 07:56:00,73.4,43.3,29.91,WSW,246,7.0,8.0,34,0.00,,---,0.00,VWS V14.01,2013-09-12 11:56:00,
2013-09-12 08:00:00,73.5,43.4,29.91,SW,223,2.0,8.0,34,0.00,,---,0.00,VWS V14.01,2013-09-12 12:00:00,
2013-09-12 08:01:00,73.5,43.4,29.91,SSW,194,6.0,8.0,34,0.00,,---,0.00,VWS V14.01,2013-09-12 12:01:00,
2013-09-12 08:06:00,73.6,43.5,29.91,SSW,212,5.0,9.0,34,0.00,,---,0.00,VWS V14.01,2013-09-12 12:06:00,
2013-09-12 08:11:00,73.8,43.7,29.91,SW,222,0.0,9.0,34,0.00,,---,0.00,VWS V14.01,2013-09-12 12:11:00,
2013-09-12 08:15:00,74.1,44.0,29.91,South,188,6.0,9.0,34,0.00,,---,0.00,VWS V14.01,2013-09-12 12:15:00,
2013-09-12 08:16:00,74.0,43.9,29.91,WSW,258,0.0,9.0,34,0.00,,---,0.00,VWS V14.01,2013-09-12 12:16:00,
2013-09-12 08:21:00,74.2,44.1,29.91,SW,236,7.0,8.0,34,0.00,,---,0.00,VWS V14.01,2013-09-12 12:21:00,
2013-09-12 08:26:00,74.4,44.2,29.91,SW,226,2.0,8.0,34,0.00,,---,0.00,VWS V14.01,2013-09-12 12:26:00,
2013-09-12 08:30:00,74.7,44.5,29.91,SW,215,0.0,8.0,34,0.00,,---,0.00,VWS V14.01,2013-09-12 12:30:00,
2013-09-12 08:32:00,74.6,44.4,29.91,SW,232,0.0,8.0,34,0.00,,---,0.00,VWS V14.01,2013-09-12 12:32:00,
2013-09-12 08:37:00,74.8,45.3,29.90,South,191,0.0,9.0,35,0.00,,---,0.00,VWS V14.01,2013-09-12 12:37:00,
2013-09-12 08:42:00,74.8,45.3,29.90,SW,218,0.0,9.0,35,0.00,,---,0.00,VWS V14.01,2013-09-12 12:42:00,
2013-09-12 08:45:00,74.8,45.3,29.91,WSW,239,3.0,9.0,35,0.00,,---,0.00,VWS V14.01,2013-09-12 12:45:00,
2013-09-12 08:47:00,74.8,45.3,29.90,SW,236,3.0,9.0,35,0.00,,---,0.00,VWS V14.01,2013-09-12 12:47:00,
2013-09-12 08:52:00,74.8,45.3,29.91,SW,236,5.0,9.0,35,0.00,,---,0.00,VWS V14.01,2013-09-12 12:52:00,
2013-09-12 08:57:00,74.7,45.3,29.91,SW,215,6.0,11.0,35,0.00,,---,0.00,VWS V14.01,2013-09-12 12:57:00,
2013-09-12 09:00:00,74.8,45.3,29.90,WSW,246,2.0,13.0,35,0.00,,---,0.00,VWS V14.01,2013-09-12 13:00:00,
2013-09-12 09:02:00,74.8,45.3,29.90,SW,221,6.0,13.0,35,0.00,,---,0.00,VWS V14.01,2013-09-12 13:02:00,
2013-09-12 09:07:00,74.8,45.3,29.90,WSW,256,0.0,7.0,35,0.00,,---,0.00,VWS V14.01,2013-09-12 13:07:00,
2013-09-12 09:12:00,75.1,45.6,29.90,SW,224,3.0,9.0,35,0.00,,---,0.00,VWS V14.01,2013-09-12 13:12:00,
2013-09-12 09:15:00,75.6,46.0,29.90,West,281,4.0,10.0,35,0.00,,---,0.00,VWS V14.01,2013-09-12 13:15:00,
2013-09-12 09:17:00,75.5,46.0,29.90,West,263,1.0,9.0,35,0.00,,---,0.00,VWS V14.01,2013-09-12 13:17:00,
2013-09-12 09:22:00,75.7,46.9,29.89,SSW,200,7.0,9.0,36,0.00,,---,0.00,VWS V14.01,2013-09-12 13:22:00,
2013-09-12 09:27:00,75.7,46.9,29.89,SSE,159,6.0,9.0,36,0.00,,---,0.00,VWS V14.01,2013-09-12 13:27:00,
2013-09-12 09:30:00,76.2,47.3,29.89,SW,230,0.0,9.0,36,0.00,,---,0.00,VWS V14.01,2013-09-12 13:30:00,
2013-09-12 09:32:00,76.0,47.2,29.89,WSW,245,0.0,9.0,36,0.00,,---,0.00,VWS V14.01,2013-09-12 13:32:00,
2013-09-12 09:37:00,76.6,47.7,29.89,SW,232,0.0,3.0,36,0.00,,---,0.00,VWS V14.01,2013-09-12 13:37:00,
2013-09-12 09:42:00,77.0,48.8,29.89,West,268,2.0,6.0,37,0.00,,---,0.00,VWS V14.01,2013-09-12 13:42:00,
2013-09-12 09:45:00,77.0,49.5,29.89,SW,236,0.0,8.0,38,0.00,,---,0.00,VWS V14.01,2013-09-12 13:45:00,
2013-09-12 09:47:00,77.0,49.5,29.89,SW,233,0.0,8.0,38,0.00,,---,0.00,VWS V14.01,2013-09-12 13:47:00,
2013-09-12 09:52:00,77.2,49.7,29.88,SE,142,0.0,4.0,38,0.00,,---,0.00,VWS V14.01,2013-09-12 13:52:00,
2013-09-12 09:57:00,77.1,50.3,29.88,South,182,7.0,10.0,39,0.00,,---,0.00,VWS V14.01,2013-09-12 13:57:00,
2013-09-12 10:00:00,77.0,49.5,29.88,SW,223,5.0,10.0,38,0.00,,---,0.00,VWS V14.01,2013-09-12 14:00:00,
2013-09-12 10:02:00,77.0,49.5,29.88,SW,221,5.0,10.0,38,0.00,,---,0.00,VWS V14.01,2013-09-12 14:02:00,
2013-09-12 10:07:00,77.1,49.6,29.88,South,183,0.0,7.0,38,0.00,,---,0.00,VWS V14.01,2013-09-12 14:07:00,
2013-09-12 10:12:00,77.6,50.0,29.88,West,261,4.0,8.0,38,0.00,,---,0.00,VWS V14.01,2013-09-12 14:12:00,
2013-09-12 10:15:00,78.7,53.0,29.88,SSW,203,0.0,8.0,41,0.00,,---,0.00,VWS V14.01,2013-09-12 14:15:00,
2013-09-12 10:17:00,78.3,52.0,29.88,SSW,202,0.0,8.0,40,0.00,,---,0.00,VWS V14.01,2013-09-12 14:17:00,
2013-09-12 10:22:00,78.7,53.7,29.88,SE,146,6.0,8.0,42,0.00,,---,0.00,VWS V14.01,2013-09-12 14:22:00,
2013-09-12 10:27:00,78.7,53.7,29.87,WSW,257,0.0,9.0,42,0.00,,---,0.00,VWS V14.01,2013-09-12 14:27:00,
2013-09-12 10:30:00,78.9,53.9,29.87,WSW,248,3.0,9.0,42,0.00,,---,0.00,VWS V14.01,2013-09-12 14:30:00,
2013-09-12 10:32:00,79.0,54.0,29.87,SW,225,1.0,9.0,42,0.00,,---,0.00,VWS V14.01,2013-09-12 14:32:00,
2013-09-12 10:37:00,79.0,54.6,29.87,SE,130,0.0,8.0,43,0.00,,---,0.00,VWS V14.01,2013-09-12 14:37:00,
2013-09-12 10:42:00,79.2,54.8,29.87,WSW,237,0.0,8.0,43,0.00,,---,0.00,VWS V14.01,2013-09-12 14:42:00,
2013-09-12 10:45:00,79.7,55.9,29.87,SSE,162,6.0,8.0,44,0.00,,---,0.00,VWS V14.01,2013-09-12 14:45:00,
2013-09-12 10:47:00,79.5,54.4,29.87,East,87,0.0,8.0,42,0.00,,---,0.00,VWS V14.01,2013-09-12 14:47:00,
2013-09-12 10:52:00,79.9,56.1,29.87,SSE,148,0.0,9.0,44,0.00,,---,0.00,VWS V14.01,2013-09-12 14:52:00,
2013-09-12 10:57:00,80.3,56.4,29.86,SW,221,2.0,9.0,44,0.00,,---,0.00,VWS V14.01,2013-09-12 14:57:00,
2013-09-12 11:00:00,80.8,57.5,29.86,SSW,198,5.0,9.0,45,0.00,,---,0.00,VWS V14.01,2013-09-12 15:00:00,
2013-09-12 11:03:00,80.5,57.2,29.86,SE,132,3.0,9.0,45,0.00,,---,0.00,VWS V14.01,2013-09-12 15:03:00,
2013-09-12 11:08:00,80.5,57.8,29.86,WSW,250,1.0,8.0,46,0.00,,---,0.00,VWS V14.01,2013-09-12 15:08:00,
2013-09-12 11:13:00,80.3,57.7,29.86,SW,226,4.0,8.0,46,0.00,,---,0.00,VWS V14.01,2013-09-12 15:13:00,
2013-09-12 11:15:00,80.7,57.4,29.86,SW,232,0.0,9.0,45,0.00,,---,0.00,VWS V14.01,2013-09-12 15:15:00,
2013-09-12 11:18:00,80.5,57.2,29.86,WSW,258,2.0,9.0,45,0.00,,---,0.00,VWS V14.01,2013-09-12 15:18:00,
2013-09-12 11:23:00,80.9,58.2,29.85,WSW,242,3.0,11.0,46,0.00,,---,0.00,VWS V14.01,2013-09-12 15:23:00,
2013-09-12 11:28:00,80.9,58.2,29.85,South,169,0.0,11.0,46,0.00,,---,0.00,VWS V14.01,2013-09-12 15:28:00,
2013-09-12 11:30:00,81.4,59.3,29.85,WSW,248,5.0,11.0,47,0.00,,---,0.00,VWS V14.01,2013-09-12 15:30:00,
2013-09-12 11:33:00,81.2,59.1,29.85,SW,235,5.0,11.0,47,0.00,,---,0.00,VWS V14.01,2013-09-12 15:33:00,
2013-09-12 11:38:00,81.5,59.9,29.85,West,279,0.0,10.0,48,0.00,,---,0.00,VWS V14.01,2013-09-12 15:38:00,
2013-09-12 11:43:00,81.1,59.6,29.85,SSW,211,2.0,14.0,48,0.00,,---,0.00,VWS V14.01,2013-09-12 15:43:00,
2013-09-12 11:45:00,81.6,60.6,29.85,SW,234,4.0,14.0,49,0.00,,---,0.00,VWS V14.01,2013-09-12 15:45:00,
2013-09-12 11:48:00,81.5,59.9,29.85,West,273,8.0,14.0,48,0.00,,---,0.00,VWS V14.01,2013-09-12 15:48:00,
2013-09-12 11:53:00,82.1,60.5,29.85,West,266,7.0,9.0,48,0.00,,---,0.00,VWS V14.01,2013-09-12 15:53:00,
2013-09-12 11:58:00,82.3,61.2,29.84,West,261,6.0,13.0,49,0.00,,---,0.00,VWS V14.01,2013-09-12 15:58:00,
2013-09-12 12:00:00,81.7,59.5,29.84,West,270,4.0,13.0,47,0.00,,---,0.00,VWS V14.01,2013-09-12 16:00:00,
2013-09-12 12:03:00,81.8,60.8,29.84,South,176,7.0,13.0,49,0.00,,---,0.00,VWS V14.01,2013-09-12 16:03:00,
2013-09-12 12:08:00,82.0,59.8,29.85,South,171,5.0,9.0,47,0.00,,---,0.00,VWS V14.01,2013-09-12 16:08:00,
2013-09-12 12:13:00,81.7,60.1,29.85,WSW,238,10.0,11.0,48,0.00,,---,0.00,VWS V14.01,2013-09-12 16:13:00,
2013-09-12 12:15:00,81.3,59.8,29.84,SSE,167,5.0,11.0,48,0.00,,---,0.00,VWS V14.01,2013-09-12 16:15:00,
2013-09-12 12:18:00,81.4,59.8,29.84,SSW,206,5.0,11.0,48,0.00,,---,0.00,VWS V14.01,2013-09-12 16:18:00,
2013-09-12 12:23:00,81.1,59.0,29.84,West,273,0.0,12.0,47,0.00,,---,0.00,VWS V14.01,2013-09-12 16:23:00,
2013-09-12 12:28:00,80.8,58.1,29.85,West,265,8.0,12.0,46,0.00,,---,0.00,VWS V14.01,2013-09-12 16:28:00,
2013-09-12 12:30:00,79.6,58.8,29.85,NW,309,0.0,15.0,49,0.00,,---,0.00,VWS V14.01,2013-09-12 16:30:00,
2013-09-12 12:33:00,79.8,59.0,29.85,NW,309,7.0,15.0,49,0.00,,---,0.00,VWS V14.01,2013-09-12 16:33:00,
2013-09-12 12:38:00,78.7,54.3,29.84,SW,228,3.0,7.0,43,0.08,,---,0.08,VWS V14.01,2013-09-12 16:38:00,
2013-09-12 12:43:00,77.2,49.7,29.84,WNW,295,0.0,7.0,38,0.14,,---,0.14,VWS V14.01,2013-09-12 16:43:00,
2013-09-12 12:45:00,76.5,46.8,29.84,WNW,295,0.0,7.0,35,0.15,,---,0.15,VWS V14.01,2013-09-12 16:45:00,
2013-09-12 12:48:00,76.6,46.2,29.84,WNW,295,0.0,7.0,34,0.15,,---,0.15,VWS V14.01,2013-09-12 16:48:00,
2013-09-12 12:53:00,76.7,45.5,29.83,WNW,295,0.0,0.0,33,0.15,,---,0.15,VWS V14.01,2013-09-12 16:53:00,
2013-09-12 12:58:00,76.5,46.1,29.84,WNW,295,0.0,1.0,34,0.15,,---,0.15,VWS V14.01,2013-09-12 16:58:00,
2013-09-12 13:00:00,76.7,44.7,29.83,WNW,295,0.0,1.0,32,0.15,,---,0.15,VWS V14.01,2013-09-12 17:00:00,
2013-09-12 13:03:00,76.6,45.4,29.83,WNW,295,0.0,1.0,33,0.15,,---,0.15,VWS V14.01,2013-09-12 17:03:00,
2013-09-12 13:08:00,77.1,45.0,29.83,WNW,295,0.0,0.0,32,0.15,,---,0.15,VWS V14.01,2013-09-12 17:08:00,
2013-09-12 13:13:00,76.8,44.7,29.83,WNW,295,0.0,1.0,32,0.15,,---,0.15,VWS V14.01,2013-09-12 17:13:00,
2013-09-12 13:15:00,76.5,46.1,29.82,WNW,295,0.0,1.0,34,0.15,,---,0.15,VWS V14.01,2013-09-12 17:15:00,
2013-09-12 13:18:00,76.5,45.3,29.82,WNW,295,0.0,1.0,33,0.15,,---,0.15,VWS V14.01,2013-09-12 17:18:00,
2013-09-12 13:23:00,76.8,45.5,29.82,WNW,295,0.0,0.0,33,0.15,,---,0.15,VWS V14.01,2013-09-12 17:23:00,
2013-09-12 13:28:00,77.2,45.1,29.82,WNW,295,0.0,1.0,32,0.15,,---,0.15,VWS V14.01,2013-09-12 17:28:00,
2013-09-12 13:30:00,77.7,45.5,29.81,WNW,295,3.0,3.0,32,0.15,,---,0.15,VWS V14.01,2013-09-12 17:30:00,
2013-09-12 13:34:00,77.6,45.4,29.81,WNW,295,0.0,1.0,32,0.15,,---,0.15,VWS V14.01,2013-09-12 17:34:00,
2013-09-12 13:39:00,78.0,45.0,29.80,WNW,294,0.0,4.0,31,0.15,,---,0.15,VWS V14.01,2013-09-12 17:39:00,
2013-09-12 13:44:00,78.4,46.1,29.81,West,274,0.0,6.0,32,0.15,,---,0.15,VWS V14.01,2013-09-12 17:44:00,
2013-09-12 13:45:00,79.0,46.7,29.80,SSW,207,2.0,7.0,32,0.15,,---,0.15,VWS V14.01,2013-09-12 17:45:00,
2013-09-12 13:49:00,79.0,46.7,29.80,West,273,7.0,7.0,32,0.15,,---,0.15,VWS V14.01,2013-09-12 17:49:00,
2013-09-12 13:54:00,79.7,48.1,29.80,SE,137,3.0,9.0,33,0.00,,---,0.15,VWS V14.01,2013-09-12 17:54:00,
2013-09-12 13:59:00,80.2,51.6,29.80,SSW,196,5.0,9.0,37,0.00,,---,0.15,VWS V14.01,2013-09-12 17:59:00,
2013-09-12 14:00:00,80.2,52.3,29.80,ESE,110,3.0,9.0,38,0.00,,---,0.15,VWS V14.01,2013-09-12 18:00:00,
2013-09-12 14:04:00,80.2,52.3,29.80,SSE,153,8.0,9.0,38,0.00,,---,0.15,VWS V14.01,2013-09-12 18:04:00,
2013-09-12 14:09:00,80.5,54.0,29.79,SE,140,1.0,10.0,40,0.00,,---,0.15,VWS V14.01,2013-09-12 18:09:00,
2013-09-12 14:14:00,81.0,55.1,29.79,West,278,3.0,11.0,41,0.00,,---,0.15,VWS V14.01,2013-09-12 18:14:00,
2013-09-12 14:15:00,81.6,57.0,29.79,South,186,0.0,11.0,43,0.00,,---,0.15,VWS V14.01,2013-09-12 18:15:00,
2013-09-12 14:19:00,81.6,56.3,29.79,South,186,4.0,11.0,42,0.00,,---,0.15,VWS V14.01,2013-09-12 18:19:00,
2013-09-12 14:24:00,82.0,57.3,29.78,South,190,5.0,9.0,43,0.00,,---,0.15,VWS V14.01,2013-09-12 18:24:00,
2013-09-12 14:29:00,82.4,59.6,29.78,SSW,213,2.0,14.0,46,0.00,,---,0.15,VWS V14.01,2013-09-12 18:29:00,
2013-09-12 14:30:00,82.9,60.6,29.78,SSW,202,2.0,14.0,47,0.00,,---,0.15,VWS V14.01,2013-09-12 18:30:00,
2013-09-12 14:34:00,82.9,60.6,29.78,SSW,194,4.0,14.0,47,0.00,,---,0.15,VWS V14.01,2013-09-12 18:34:00,
2013-09-12 14:39:00,83.2,61.5,29.78,SW,233,1.0,9.0,48,0.00,,---,0.15,VWS V14.01,2013-09-12 18:39:00,
2013-09-12 14:44:00,83.4,62.8,29.77,WSW,251,8.0,12.0,50,0.00,,---,0.15,VWS V14.01,2013-09-12 18:44:00,
2013-09-12 14:45:00,83.5,62.9,29.77,South,190,3.0,12.0,50,0.00,,---,0.15,VWS V14.01,2013-09-12 18:45:00,
2013-09-12 14:49:00,83.5,62.9,29.77,SSW,198,4.0,12.0,50,0.00,,---,0.15,VWS V14.01,2013-09-12 18:49:00,
2013-09-12 14:54:00,84.0,63.4,29.77,SW,225,5.0,11.0,50,0.00,,---,0.15,VWS V14.01,2013-09-12 18:54:00,
2013-09-12 14:59:00,84.2,64.1,29.77,South,180,1.0,15.0,51,0.00,,---,0.15,VWS V14.01,2013-09-12 18:59:00,
2013-09-12 15:00:00,84.6,64.5,29.76,SSW,196,5.0,15.0,51,0.00,,---,0.15,VWS V14.01,2013-09-12 19:00:00,
2013-09-12 15:04:00,84.6,64.5,29.76,SSW,196,5.0,15.0,51,0.00,,---,0.15,VWS V14.01,2013-09-12 19:04:00,
2013-09-12 15:09:00,84.7,65.1,29.76,SW,235,0.0,11.0,52,0.00,,---,0.15,VWS V14.01,2013-09-12 19:09:00,
2013-09-12 15:14:00,84.8,65.8,29.75,West,263,8.0,14.0,53,0.00,,---,0.15,VWS V14.01,2013-09-12 19:14:00,
2013-09-12 15:15:00,84.9,66.4,29.75,West,260,4.0,14.0,54,0.00,,---,0.15,VWS V14.01,2013-09-12 19:15:00,
2013-09-12 15:19:00,84.9,66.4,29.75,West,260,3.0,4.0,54,0.00,,---,0.15,VWS V14.01,2013-09-12 19:19:00,
2013-09-12 15:24:00,85.1,66.1,29.74,SSW,198,2.0,9.0,53,0.00,,---,0.15,VWS V14.01,2013-09-12 19:24:00,
2013-09-12 15:29:00,85.4,66.9,29.74,WSW,252,9.0,11.0,54,0.00,,---,0.15,VWS V14.01,2013-09-12 19:29:00,
2013-09-12 15:30:00,85.2,67.2,29.74,West,267,2.0,11.0,55,0.00,,---,0.15,VWS V14.01,2013-09-12 19:30:00,
2013-09-12 15:34:00,85.2,67.2,29.74,West,267,0.0,2.0,55,0.00,,---,0.15,VWS V14.01,2013-09-12 19:34:00,
2013-09-12 15:39:00,85.3,66.2,29.73,SW,232,0.0,7.0,53,0.00,,---,0.15,VWS V14.01,2013-09-12 19:39:00,
2013-09-12 15:44:00,85.5,67.0,29.73,WSW,251,0.0,10.0,54,0.00,,---,0.15,VWS V14.01,2013-09-12 19:44:00,
2013-09-12 15:45:00,85.0,66.5,29.72,South,184,3.0,10.0,54,0.00,,---,0.15,VWS V14.01,2013-09-12 19:45:00,
2013-09-12 15:49:00,84.9,66.4,29.72,South,184,0.0,3.0,54,0.00,,---,0.15,VWS V14.01,2013-09-12 19:49:00,
2013-09-12 15:54:00,84.5,65.5,29.72,SW,232,0.0,11.0,53,0.00,,---,0.15,VWS V14.01,2013-09-12 19:54:00,
2013-09-12 15:59:00,84.7,66.2,29.72,WSW,253,2.0,11.0,54,0.00,,---,0.15,VWS V14.01,2013-09-12 19:59:00,
2013-09-12 16:00:00,84.8,66.3,29.72,SSW,209,5.0,11.0,54,0.00,,---,0.15,VWS V14.01,2013-09-12 20:00:00,
2013-09-12 16:05:00,84.7,66.2,29.72,West,268,2.0,5.0,54,0.00,,---,0.15,VWS V14.01,2013-09-12 20:05:00,
2013-09-12 16:10:00,84.6,66.7,29.72,SSW,208,2.0,10.0,55,0.00,,---,0.15,VWS V14.01,2013-09-12 20:10:00,
2013-09-12 16:15:00,85.2,67.2,29.71,SW,230,3.0,10.0,55,0.00,,---,0.15,VWS V14.01,2013-09-12 20:15:00,
2013-09-12 16:20:00,85.4,67.4,29.71,West,270,1.0,4.0,55,0.00,,---,0.15,VWS V14.01,2013-09-12 20:20:00,
2013-09-12 16:25:00,85.0,67.0,29.71,SSW,196,8.0,12.0,55,0.00,,---,0.15,VWS V14.01,2013-09-12 20:25:00,
2013-09-12 16:30:00,84.7,66.8,29.71,SW,225,3.0,12.0,55,0.00,,---,0.15,VWS V14.01,2013-09-12 20:30:00,
2013-09-12 16:35:00,84.7,66.2,29.71,SSE,148,10.0,10.0,54,0.00,,---,0.15,VWS V14.01,2013-09-12 20:35:00,
2013-09-12 16:40:00,84.7,66.2,29.70,SW,230,0.0,10.0,54,0.00,,---,0.15,VWS V14.01,2013-09-12 20:40:00,
2013-09-12 16:45:00,84.8,66.3,29.70,WSW,248,3.0,10.0,54,0.00,,---,0.15,VWS V14.01,2013-09-12 20:45:00,
2013-09-12 16:50:00,84.8,66.3,29.70,WSW,239,1.0,3.0,54,0.00,,---,0.15,VWS V14.01,2013-09-12 20:50:00,
2013-09-12 16:55:00,84.7,66.8,29.70,West,269,9.0,11.0,55,0.00,,---,0.15,VWS V14.01,2013-09-12 20:55:00,
2013-09-12 17:00:00,84.7,66.8,29.69,SW,221,1.0,11.0,55,0.00,,---,0.15,VWS V14.01,2013-09-12 21:00:00,
2013-09-12 17:05:00,84.7,66.2,29.69,WSW,240,5.0,5.0,54,0.00,,---,0.15,VWS V14.01,2013-09-12 21:05:00,
2013-09-12 17:10:00,84.6,66.7,29.69,WSW,246,0.0,9.0,55,0.00,,---,0.15,VWS V14.01,2013-09-12 21:10:00,
2013-09-12 17:15:00,84.7,66.8,29.68,SW,232,3.0,11.0,55,0.00,,---,0.15,VWS V14.01,2013-09-12 21:15:00,
2013-09-12 17:20:00,84.6,66.7,29.67,SSW,209,3.0,8.0,55,0.00,,---,0.15,VWS V14.01,2013-09-12 21:20:00,
2013-09-12 17:25:00,84.2,65.8,29.67,WSW,242,4.0,11.0,54,0.00,,---,0.15,VWS V14.01,2013-09-12 21:25:00,
2013-09-12 17:30:00,83.9,65.5,29.68,SW,214,0.0,12.0,54,0.00,,---,0.15,VWS V14.01,2013-09-12 21:30:00,
2013-09-12 17:35:00,83.8,65.4,29.68,WNW,286,0.0,7.0,54,0.00,,---,0.15,VWS V14.01,2013-09-12 21:35:00,
2013-09-12 17:40:00,83.7,64.8,29.68,SW,226,0.0,7.0,53,0.00,,---,0.15,VWS V14.01,2013-09-12 21:40:00,
2013-09-12 17:45:00,83.6,65.2,29.68,WSW,252,0.0,7.0,54,0.00,,---,0.15,VWS V14.01,2013-09-12 21:45:00,
2013-09-12 17:50:00,83.6,65.2,29.68,West,260,2.0,8.0,54,0.00,,---,0.15,VWS V14.01,2013-09-12 21:50:00,
2013-09-12 17:55:00,83.6,64.7,29.69,SW,225,6.0,8.0,53,0.00,,---,0.15,VWS V14.01,2013-09-12 21:55:00,
2013-09-12 18:00:00,83.6,64.7,29.69,SW,217,3.0,8.0,53,0.00,,---,0.15,VWS V14.01,2013-09-12 22:00:00,
2013-09-12 18:05:00,83.6,64.7,29.69,SW,233,3.0,3.0,53,0.00,,---,0.15,VWS V14.01,2013-09-12 22:05:00,
2013-09-12 18:10:00,83.7,64.8,29.68,SSW,209,2.0,7.0,53,0.00,,---,0.15,VWS V14.01,2013-09-12 22:10:00,
2013-09-12 18:15:00,83.6,65.2,29.68,SSW,195,6.0,9.0,54,0.00,,---,0.15,VWS V14.01,2013-09-12 22:15:00,
2013-09-12 18:20:00,83.5,65.1,29.68,SW,223,0.0,5.0,54,0.00,,---,0.15,VWS V14.01,2013-09-12 22:20:00,
2013-09-12 18:25:00,83.3,64.9,29.68,West,281,4.0,8.0,54,0.00,,---,0.15,VWS V14.01,2013-09-12 22:25:00,
2013-09-12 18:30:00,83.2,64.8,29.67,West,273,8.0,8.0,54,0.00,,---,0.15,VWS V14.01,2013-09-12 22:30:00,
2013-09-12 18:35:00,83.2,64.8,29.67,WSW,242,0.0,7.0,54,0.00,,---,0.15,VWS V14.01,2013-09-12 22:35:00,
2013-09-12 18:41:00,83.2,64.8,29.67,WNW,284,7.0,10.0,54,0.00,,---,0.15,VWS V14.01,2013-09-12 22:41:00,
2013-09-12 18:45:00,83.1,64.8,29.68,West,270,3.0,14.0,54,0.00,,---,0.15,VWS V14.01,2013-09-12 22:45:00,
2013-09-12 18:46:00,83.2,64.8,29.68,SSW,213,7.0,10.0,54,0.00,,---,0.15,VWS V14.01,2013-09-12 22:46:00,
2013-09-12 18:51:00,83.1,64.8,29.68,West,259,8.0,10.0,54,0.00,,---,0.15,VWS V14.01,2013-09-12 22:51:00,
2013-09-12 18:56:00,82.9,64.6,29.68,WNW,290,7.0,16.0,54,0.00,,---,0.15,VWS V14.01,2013-09-12 22:56:00,
2013-09-12 19:00:00,82.0,64.3,29.70,West,272,12.0,23.0,55,0.00,,---,0.15,VWS V14.01,2013-09-12 23:00:00,
2013-09-12 19:01:00,82.5,64.2,29.69,West,278,15.0,17.0,54,0.00,,---,0.15,VWS V14.01,2013-09-12 23:01:00,
2013-09-12 19:06:00,81.4,64.7,29.71,WNW,300,13.0,25.0,57,0.00,,---,0.15,VWS V14.01,2013-09-12 23:06:00,
2013-09-12 19:11:00,78.3,62.3,29.71,WNW,283,7.0,29.0,58,0.00,,---,0.15,VWS V14.01,2013-09-12 23:11:00,
2013-09-12 19:15:00,75.7,58.4,29.74,WSW,253,10.0,29.0,55,0.00,,---,0.15,VWS V14.01,2013-09-12 23:15:00,
2013-09-12 19:16:00,76.7,60.3,29.73,West,273,10.0,29.0,57,0.00,,---,0.15,VWS V14.01,2013-09-12 23:16:00,
2013-09-12 19:21:00,74.7,56.5,29.74,West,277,6.0,21.0,53,0.02,,---,0.17,VWS V14.01,2013-09-12 23:21:00,
2013-09-12 19:26:00,72.0,48.9,29.75,SW,234,10.0,21.0,44,0.13,,---,0.28,VWS V14.01,2013-09-12 23:26:00,
2013-09-12 19:30:00,70.1,43.3,29.73,WNW,293,5.0,21.0,38,0.23,,---,0.38,VWS V14.01,2013-09-12 23:30:00,
2013-09-12 19:31:00,70.6,44.5,29.74,WSW,251,3.0,21.0,39,0.19,,---,0.34,VWS V14.01,2013-09-12 23:31:00,
2013-09-12 19:36:00,69.9,42.5,29.73,WNW,284,4.0,6.0,37,0.25,,---,0.40,VWS V14.01,2013-09-12 23:36:00,
2013-09-12 19:41:00,69.5,41.4,29.72,West,265,0.0,13.0,36,0.30,,---,0.45,VWS V14.01,2013-09-12 23:41:00,
2013-09-12 19:45:00,69.3,41.2,29.72,West,265,0.0,13.0,36,0.33,,---,0.48,VWS V14.01,2013-09-12 23:45:00,
2013-09-12 19:46:00,69.4,41.3,29.71,West,265,0.0,13.0,36,0.32,,---,0.48,VWS V14.01,2013-09-12 23:46:00,
2013-09-12 19:51:00,69.3,41.2,29.72,West,265,0.0,0.0,36,0.33,,---,0.48,VWS V14.01,2013-09-12 23:51:00,
2013-09-12 19:56:00,69.4,41.3,29.72,SE,128,2.0,5.0,36,0.35,,---,0.50,VWS V14.01,2013-09-12 23:56:00,
2013-09-12 20:00:00,69.4,41.3,29.72,SE,128,0.0,5.0,36,0.35,,---,0.50,VWS V14.01,2013-09-13 00:00:00,
2013-09-12 20:01:00,69.4,41.3,29.72,SE,128,0.0,5.0,36,0.35,,---,0.50,VWS V14.01,2013-09-13 00:01:00,
2013-09-12 20:06:00,69.4,42.0,29.73,SE,128,0.0,0.0,37,0.35,,---,0.50,VWS V14.01,2013-09-13 00:06:00,
2013-09-12 20:11:00,69.4,42.0,29.73,SE,134,0.0,3.0,37,0.35,,---,0.50,VWS V14.01,2013-09-13 00:11:00,
2013-09-12 20:15:00,69.3,41.9,29.73,SE,134,0.0,3.0,37,0.35,,---,0.50,VWS V14.01,2013-09-13 00:15:00,
2013-09-12 20:16:00,69.3,41.9,29.73,SE,134,0.0,3.0,37,0.35,,---,0.50,VWS V14.01,2013-09-13 00:16:00,
2013-09-12 20:21:00,69.3,41.9,29.73,SE,134,0.0,3.0,37,0.35,,---,0.50,VWS V14.01,2013-09-13 00:21:00,
2013-09-12 20:26:00,69.3,41.9,29.73,SE,140,0.0,4.0,37,0.36,,---,0.51,VWS V14.01,2013-09-13 00:26:00,
2013-09-12 20:30:00,69.2,42.5,29.71,SE,138,2.0,4.0,38,0.36,,---,0.51,VWS V14.01,2013-09-13 00:30:00,
2013-09-12 20:31:00,69.3,41.9,29.72,SE,140,0.0,4.0,37,0.36,,---,0.51,VWS V14.01,2013-09-13 00:31:00,
2013-09-12 20:36:00,69.2,42.5,29.72,SE,138,0.0,4.0,38,0.14,,---,0.52,VWS V14.01,2013-09-13 00:36:00,
2013-09-12 20:41:00,69.1,42.5,29.71,SE,141,0.0,5.0,38,0.14,,---,0.52,VWS V14.01,2013-09-13 00:41:00,
2013-09-12 20:45:00,69.0,42.4,29.71,SSE,148,0.0,5.0,38,0.14,,---,0.52,VWS V14.01,2013-09-13 00:45:00,
2013-09-12 20:46:00,69.0,42.4,29.72,SSE,148,0.0,5.0,38,0.14,,---,0.52,VWS V14.01,2013-09-13 00:46:00,
2013-09-12 20:51:00,69.0,42.4,29.71,SSE,148,0.0,0.0,38,0.04,,---,0.52,VWS V14.01,2013-09-13 00:51:00,
2013-09-12 20:56:00,68.9,42.3,29.72,SSE,148,0.0,0.0,38,0.04,,---,0.52,VWS V14.01,2013-09-13 00:56:00,
2013-09-12 21:00:00,68.7,42.1,29.72,SSE,148,0.0,1.0,38,0.04,,---,0.52,VWS V14.01,2013-09-13 01:00:00,
2013-09-12 21:01:00,68.8,42.2,29.72,SSE,148,0.0,1.0,38,0.04,,---,0.52,VWS V14.01,2013-09-13 01:01:00,
2013-09-12 21:06:00,68.7,42.1,29.72,SSE,148,0.0,0.0,38,0.02,,---,0.52,VWS V14.01,2013-09-13 01:06:00,
2013-09-12 21:12:00,68.6,42.7,29.72,NNW,329,4.0,5.0,39,0.02,,---,0.52,VWS V14.01,2013-09-13 01:12:00,
2013-09-12 21:15:00,68.5,42.6,29.72,NNW,328,0.0,5.0,39,0.02,,---,0.52,VWS V14.01,2013-09-13 01:15:00,
2013-09-12 21:17:00,68.6,42.7,29.72,NNW,328,1.0,5.0,39,0.02,,---,0.52,VWS V14.01,2013-09-13 01:17:00,
2013-09-12 21:22:00,68.6,42.7,29.71,NNW,328,0.0,0.0,39,0.02,,---,0.52,VWS V14.01,2013-09-13 01:22:00,
2013-09-12 21:27:00,68.6,42.7,29.71,NNW,328,0.0,0.0,39,0.02,,---,0.52,VWS V14.01,2013-09-13 01:27:00,
2013-09-12 21:30:00,68.5,42.6,29.72,NNW,328,0.0,1.0,39,0.02,,---,0.52,VWS V14.01,2013-09-13 01:30:00,
2013-09-12 21:32:00,68.5,42.6,29.71,NNW,328,0.0,1.0,39,0.02,,---,0.52,VWS V14.01,2013-09-13 01:32:00,
2013-09-12 21:37:00,68.5,42.6,29.72,NNW,328,0.0,0.0,39,0.01,,---,0.52,VWS V14.01,2013-09-13 01:37:00,
2013-09-12 21:42:00,68.5,43.2,29.72,NNW,328,0.0,0.0,40,0.01,,---,0.52,VWS V14.01,2013-09-13 01:42:00,
2013-09-12 21:45:00,68.4,43.2,29.72,NW,315,0.0,3.0,40,0.01,,---,0.52,VWS V14.01,2013-09-13 01:45:00,
2013-09-12 21:47:00,68.5,43.2,29.72,NW,316,1.0,3.0,40,0.01,,---,0.52,VWS V14.01,2013-09-13 01:47:00,
2013-09-12 21:52:00,68.4,43.2,29.72,NW,315,0.0,1.0,40,0.00,,---,0.52,VWS V14.01,2013-09-13 01:52:00,
2013-09-12 21:57:00,68.4,43.2,29.72,NW,314,0.0,1.0,40,0.00,,---,0.52,VWS V14.01,2013-09-13 01:57:00,
2013-09-12 22:00:00,68.4,43.2,29.72,NW,311,0.0,2.0,40,0.00,,---,0.52,VWS V14.01,2013-09-13 02:00:00,
2013-09-12 22:02:00,68.4,43.2,29.72,NW,311,0.0,2.0,40,0.00,,---,0.52,VWS V14.01,2013-09-13 02:02:00,
2013-09-12 22:07:00,68.4,43.2,29.72,NW,311,1.0,3.0,40,0.00,,---,0.52,VWS V14.01,2013-09-13 02:07:00,
2013-09-12 22:12:00,68.4,43.2,29.72,NW,306,2.0,3.0,40,0.00,,---,0.52,VWS V14.01,2013-09-13 02:12:00,
2013-09-12 22:15:00,68.3,43.7,29.72,NW,306,0.0,3.0,41,0.00,,---,0.52,VWS V14.01,2013-09-13 02:15:00,
2013-09-12 22:17:00,68.3,43.7,29.72,NW,306,0.0,3.0,41,0.00,,---,0.52,VWS V14.01,2013-09-13 02:17:00,
2013-09-12 22:22:00,68.3,43.7,29.72,SW,228,0.0,5.0,41,0.00,,---,0.52,VWS V14.01,2013-09-13 02:22:00,
2013-09-12 22:27:00,68.3,43.7,29.71,SW,228,0.0,5.0,41,0.00,,---,0.52,VWS V14.01,2013-09-13 02:27:00,
2013-09-12 22:30:00,68.3,43.7,29.71,SW,228,0.0,5.0,41,0.00,,---,0.52,VWS V14.01,2013-09-13 02:30:00,
2013-09-12 22:32:00,68.3,43.7,29.71,SW,228,0.0,5.0,41,0.00,,---,0.52,VWS V14.01,2013-09-13 02:32:00,
2013-09-12 22:37:00,68.2,43.6,29.71,SW,228,0.0,1.0,41,0.00,,---,0.52,VWS V14.01,2013-09-13 02:37:00,
2013-09-12 22:42:00,68.2,43.6,29.71,SW,228,0.0,1.0,41,0.00,,---,0.52,VWS V14.01,2013-09-13 02:42:00,
2013-09-12 22:45:00,68.1,43.5,29.71,SW,228,0.0,1.0,41,0.00,,---,0.52,VWS V14.01,2013-09-13 02:45:00,
2013-09-12 22:47:00,68.1,43.5,29.71,SW,228,0.0,1.0,41,0.00,,---,0.52,VWS V14.01,2013-09-13 02:47:00,
2013-09-12 22:52:00,68.1,43.5,29.70,SW,228,0.0,3.0,41,0.00,,---,0.52,VWS V14.01,2013-09-13 02:52:00,
2013-09-12 22:57:00,68.1,43.5,29.71,SW,228,0.0,3.0,41,0.00,,---,0.52,VWS V14.01,2013-09-13 02:57:00,
2013-09-12 23:00:00,68.1,43.5,29.71,SW,228,0.0,3.0,41,0.00,,---,0.52,VWS V14.01,2013-09-13 03:00:00,
2013-09-12 23:02:00,68.1,43.5,29.71,SW,228,0.0,3.0,41,0.00,,---,0.52,VWS V14.01,2013-09-13 03:02:00,
2013-09-12 23:07:00,68.1,43.5,29.70,SW,228,0.0,0.0,41,0.00,,---,0.52,VWS V14.01,2013-09-13 03:07:00,
2013-09-12 23:12:00,68.1,43.5,29.70,SW,228,1.0,1.0,41,0.00,,---,0.52,VWS V14.01,2013-09-13 03:12:00,
2013-09-12 23:15:00,68.1,43.5,29.70,SW,229,1.0,1.0,41,0.00,,---,0.52,VWS V14.01,2013-09-13 03:15:00,
2013-09-12 23:17:00,68.1,43.5,29.70,SW,228,0.0,1.0,41,0.00,,---,0.52,VWS V14.01,2013-09-13 03:17:00,
2013-09-12 23:22:00,68.0,43.5,29.70,SW,231,0.0,2.0,41,0.00,,---,0.52,VWS V14.01,2013-09-13 03:22:00,
2013-09-12 23:27:00,68.0,43.5,29.70,SW,235,1.0,3.0,41,0.00,,---,0.52,VWS V14.01,2013-09-13 03:27:00,
2013-09-12 23:30:00,68.0,43.5,29.70,WSW,238,0.0,3.0,41,0.00,,---,0.52,VWS V14.01,2013-09-13 03:30:00,
2013-09-12 23:32:00,68.0,43.5,29.70,WSW,238,0.0,3.0,41,0.00,,---,0.52,VWS V14.01,2013-09-13 03:32:00,
2013-09-12 23:37:00,68.0,43.5,29.70,WSW,238,0.0,0.0,41,0.00,,---,0.52,VWS V14.01,2013-09-13 03:37:00,
2013-09-12 23:42:00,68.0,44.1,29.70,WSW,238,0.0,4.0,42,0.00,,---,0.52,VWS V14.01,2013-09-13 03:42:00,
2013-09-12 23:45:00,68.0,44.1,29.70,WSW,242,0.0,4.0,42,0.00,,---,0.52,VWS V14.01,2013-09-13 03:45:00,
2013-09-12 23:48:00,68.0,44.1,29.70,WSW,242,0.0,4.0,42,0.00,,---,0.52,VWS V14.01,2013-09-13 03:48:00,
2013-09-12 23:53:00,68.0,44.1,29.70,WSW,242,0.0,0.0,42,0.00,,---,0.52,VWS V14.01,2013-09-13 03:53:00,
2013-09-12 23:58:00,68.0,44.1,29.69,WSW,242,0.0,0.0,42,0.00,,---,0.52,VWS V14.01,2013-09-13 03:58:00,